aviador You're here:

KENW Decoded Metar

KENOSHA in WI, USA
Report Time2017-06-24 16:53:00
UTC Time2017-06-24 17:08:26
Flight Rules vfr VFR
Wind280° at 10 Gusting to 20 kt
W.Decomp.*RWY 25: 8.5 kt HW 5.3 kt RCW
RWY 33: 6.7 kt HW 7.4 kt LCW
W.Rank280° ranks 5
Current wind is above 280° avg. (8.5)
Visibility9999 m
Phenomena:N/A
Clouds:Few 044 Hf
Few 055 Hf
Broken 075 Hf
Expected CloudBase > 4,000 ft AGL from Temp-Dew spread
Ceiling7,500 ft
Temp20°C (ISA +6)
Dew Point10°C (53% RH)
AAT16.5°C
QNH1015 hPa
Density Alt1,572 ft
Elevation719 ft
Report Wrong Elevation
Raw Report
METAR KENW 241653Z 28010G20KT 10SM FEW044 FEW055 BKN075 20/10 A2997
RMK AO2 SLP148 T02000100=

Extra information for KENW:More info

Metar Taf Metar & Taf Last 4 Metars F.Rules Stats Wind Profile Meteogram Temp Stats Airport Information Weather charts Add Link Nearby VenuesMetar ALERT Operation Metar Decoded Social comments

AIRNAV info for KENW